sensor_id;sensor_type;location;lat;lon;timestamp;temperature;humidity
33269;DHT22;19640;50.944;5.260;2023-06-14T00:01:50;19.20;89.20
33269;DHT22;19640;50.944;5.260;2023-06-14T00:04:16;19.20;90.30
33269;DHT22;19640;50.944;5.260;2023-06-14T00:06:42;19.20;90.10
33269;DHT22;19640;50.944;5.260;2023-06-14T00:09:11;19.20;90.20
33269;DHT22;19640;50.944;5.260;2023-06-14T00:11:39;19.20;89.20
33269;DHT22;19640;50.944;5.260;2023-06-14T00:14:05;19.30;88.90
33269;DHT22;19640;50.944;5.260;2023-06-14T00:16:31;19.40;87.80
33269;DHT22;19640;50.944;5.260;2023-06-14T00:18:58;19.50;87.90
33269;DHT22;19640;50.944;5.260;2023-06-14T00:21:24;19.50;87.00
33269;DHT22;19640;50.944;5.260;2023-06-14T00:23:49;19.50;85.30
33269;DHT22;19640;50.944;5.260;2023-06-14T00:26:15;19.60;85.90
33269;DHT22;19640;50.944;5.260;2023-06-14T00:28:41;19.60;86.20
33269;DHT22;19640;50.944;5.260;2023-06-14T00:31:07;19.50;86.60
33269;DHT22;19640;50.944;5.260;2023-06-14T00:33:33;19.50;85.70
33269;DHT22;19640;50.944;5.260;2023-06-14T00:35:58;19.50;86.40
33269;DHT22;19640;50.944;5.260;2023-06-14T00:38:24;19.30;86.70
33269;DHT22;19640;50.944;5.260;2023-06-14T00:40:51;19.20;90.10
33269;DHT22;19640;50.944;5.260;2023-06-14T00:43:16;19.20;90.40
33269;DHT22;19640;50.944;5.260;2023-06-14T00:45:42;19.20;91.20
33269;DHT22;19640;50.944;5.260;2023-06-14T00:48:08;18.90;90.60
33269;DHT22;19640;50.944;5.260;2023-06-14T00:50:34;18.80;91.00
33269;DHT22;19640;50.944;5.260;2023-06-14T00:53:01;18.80;91.90
33269;DHT22;19640;50.944;5.260;2023-06-14T00:55:27;18.60;92.20
33269;DHT22;19640;50.944;5.260;2023-06-14T00:57:55;18.60;92.20
33269;DHT22;19640;50.944;5.260;2023-06-14T01:00:21;18.60;92.60
33269;DHT22;19640;50.944;5.260;2023-06-14T01:02:47;18.70;92.30
33269;DHT22;19640;50.944;5.260;2023-06-14T01:05:15;18.60;92.20
33269;DHT22;19640;50.944;5.260;2023-06-14T01:13:36;18.30;92.50
33269;DHT22;19640;50.944;5.260;2023-06-14T01:16:03;18.30;93.20
33269;DHT22;19640;50.944;5.260;2023-06-14T01:18:30;18.40;91.20
33269;DHT22;19640;50.944;5.260;2023-06-14T01:20:57;18.50;90.50
33269;DHT22;19640;50.944;5.260;2023-06-14T01:23:23;18.60;90.60
33269;DHT22;19640;50.944;5.260;2023-06-14T01:25:50;18.60;90.90
33269;DHT22;19640;50.944;5.260;2023-06-14T01:28:20;18.50;90.70
33269;DHT22;19640;50.944;5.260;2023-06-14T01:30:54;18.60;90.70
33269;DHT22;19640;50.944;5.260;2023-06-14T01:33:22;18.70;90.30
33269;DHT22;19640;50.944;5.260;2023-06-14T01:35:51;18.60;89.20
33269;DHT22;19640;50.944;5.260;2023-06-14T01:38:22;18.60;89.50
33269;DHT22;19640;50.944;5.260;2023-06-14T01:40:50;18.50;90.40
33269;DHT22;19640;50.944;5.260;2023-06-14T01:43:16;18.40;90.90
33269;DHT22;19640;50.944;5.260;2023-06-14T01:45:45;18.30;90.10
33269;DHT22;19640;50.944;5.260;2023-06-14T01:48:12;18.30;90.40
33269;DHT22;19640;50.944;5.260;2023-06-14T01:50:39;18.40;90.40
33269;DHT22;19640;50.944;5.260;2023-06-14T01:53:08;18.30;90.70
33269;DHT22;19640;50.944;5.260;2023-06-14T01:55:34;18.30;91.60
33269;DHT22;19640;50.944;5.260;2023-06-14T01:58:03;18.30;90.60
33269;DHT22;19640;50.944;5.260;2023-06-14T02:00:30;18.30;90.60
33269;DHT22;19640;50.944;5.260;2023-06-14T02:02:56;18.40;90.90
33269;DHT22;19640;50.944;5.260;2023-06-14T02:05:22;18.30;89.90
33269;DHT22;19640;50.944;5.260;2023-06-14T02:07:48;18.40;90.20
33269;DHT22;19640;50.944;5.260;2023-06-14T02:10:13;18.30;90.10
33269;DHT22;19640;50.944;5.260;2023-06-14T02:12:40;18.30;90.60
33269;DHT22;19640;50.944;5.260;2023-06-14T02:15:07;18.20;91.00
33269;DHT22;19640;50.944;5.260;2023-06-14T02:17:33;18.10;90.30
33269;DHT22;19640;50.944;5.260;2023-06-14T02:19:58;18.10;90.80
33269;DHT22;19640;50.944;5.260;2023-06-14T02:22:24;18.10;90.60
33269;DHT22;19640;50.944;5.260;2023-06-14T02:24:50;18.10;91.10
33269;DHT22;19640;50.944;5.260;2023-06-14T02:27:16;18.10;90.70
33269;DHT22;19640;50.944;5.260;2023-06-14T02:29:42;18.20;91.10
33269;DHT22;19640;50.944;5.260;2023-06-14T02:32:08;18.10;91.90
33269;DHT22;19640;50.944;5.260;2023-06-14T02:34:34;18.20;91.90
33269;DHT22;19640;50.944;5.260;2023-06-14T02:37:01;18.10;91.70
33269;DHT22;19640;50.944;5.260;2023-06-14T02:39:28;18.20;91.70
33269;DHT22;19640;50.944;5.260;2023-06-14T02:41:54;18.10;91.00
33269;DHT22;19640;50.944;5.260;2023-06-14T02:44:25;18.00;90.90
33269;DHT22;19640;50.944;5.260;2023-06-14T02:46:54;18.00;91.30
33269;DHT22;19640;50.944;5.260;2023-06-14T02:49:21;18.10;91.00
33269;DHT22;19640;50.944;5.260;2023-06-14T02:51:47;18.00;91.20
33269;DHT22;19640;50.944;5.260;2023-06-14T02:54:13;17.90;91.30
33269;DHT22;19640;50.944;5.260;2023-06-14T02:56:39;17.90;91.50
33269;DHT22;19640;50.944;5.260;2023-06-14T02:59:06;17.90;91.90
33269;DHT22;19640;50.944;5.260;2023-06-14T03:01:32;17.90;91.10
33269;DHT22;19640;50.944;5.260;2023-06-14T03:04:06;18.00;91.20
33269;DHT22;19640;50.944;5.260;2023-06-14T03:06:32;17.90;91.70
33269;DHT22;19640;50.944;5.260;2023-06-14T03:08:59;17.80;92.30
33269;DHT22;19640;50.944;5.260;2023-06-14T03:11:28;17.70;92.10
33269;DHT22;19640;50.944;5.260;2023-06-14T03:13:54;17.70;92.20
33269;DHT22;19640;50.944;5.260;2023-06-14T03:16:20;17.70;92.40
33269;DHT22;19640;50.944;5.260;2023-06-14T03:18:52;17.60;92.40
33269;DHT22;19640;50.944;5.260;2023-06-14T03:21:19;17.70;92.90
33269;DHT22;19640;50.944;5.260;2023-06-14T03:23:46;17.60;92.30
33269;DHT22;19640;50.944;5.260;2023-06-14T03:26:12;17.40;93.60
33269;DHT22;19640;50.944;5.260;2023-06-14T03:28:47;17.40;93.90
33269;DHT22;19640;50.944;5.260;2023-06-14T03:31:13;17.40;93.20
33269;DHT22;19640;50.944;5.260;2023-06-14T03:33:40;17.50;92.60
33269;DHT22;19640;50.944;5.260;2023-06-14T03:36:06;17.50;92.80
33269;DHT22;19640;50.944;5.260;2023-06-14T03:38:35;17.40;92.70
33269;DHT22;19640;50.944;5.260;2023-06-14T03:41:01;17.50;92.70
33269;DHT22;19640;50.944;5.260;2023-06-14T03:43:27;17.40;92.70
33269;DHT22;19640;50.944;5.260;2023-06-14T03:45:53;17.40;92.80
33269;DHT22;19640;50.944;5.260;2023-06-14T03:48:19;17.40;92.80
33269;DHT22;19640;50.944;5.260;2023-06-14T03:50:45;17.40;92.70
33269;DHT22;19640;50.944;5.260;2023-06-14T03:53:11;17.40;92.70
33269;DHT22;19640;50.944;5.260;2023-06-14T03:55:37;17.30;92.80
33269;DHT22;19640;50.944;5.260;2023-06-14T03:58:03;17.30;93.00
33269;DHT22;19640;50.944;5.260;2023-06-14T04:00:29;17.30;93.30
33269;DHT22;19640;50.944;5.260;2023-06-14T04:02:55;17.30;93.00
33269;DHT22;19640;50.944;5.260;2023-06-14T04:05:20;17.40;92.90
33269;DHT22;19640;50.944;5.260;2023-06-14T04:07:46;17.50;92.80
33269;DHT22;19640;50.944;5.260;2023-06-14T04:10:14;17.50;92.90
33269;DHT22;19640;50.944;5.260;2023-06-14T04:12:40;17.60;92.90
33269;DHT22;19640;50.944;5.260;2023-06-14T04:15:07;17.50;93.60
33269;DHT22;19640;50.944;5.260;2023-06-14T04:17:33;17.50;93.60
33269;DHT22;19640;50.944;5.260;2023-06-14T04:19:59;17.50;93.90
33269;DHT22;19640;50.944;5.260;2023-06-14T04:22:26;17.60;93.40
33269;DHT22;19640;50.944;5.260;2023-06-14T04:24:56;17.60;92.90
33269;DHT22;19640;50.944;5.260;2023-06-14T04:27:26;17.60;92.70
33269;DHT22;19640;50.944;5.260;2023-06-14T04:29:53;17.50;93.10
33269;DHT22;19640;50.944;5.260;2023-06-14T04:32:26;17.50;93.20
33269;DHT22;19640;50.944;5.260;2023-06-14T04:34:55;17.60;93.00
33269;DHT22;19640;50.944;5.260;2023-06-14T04:37:22;17.60;92.90
33269;DHT22;19640;50.944;5.260;2023-06-14T04:39:48;17.60;93.40
33269;DHT22;19640;50.944;5.260;2023-06-14T04:42:14;17.60;93.60
33269;DHT22;19640;50.944;5.260;2023-06-14T04:44:43;17.70;93.90
33269;DHT22;19640;50.944;5.260;2023-06-14T04:47:12;17.60;93.80
33269;DHT22;19640;50.944;5.260;2023-06-14T04:49:38;17.50;93.80
33269;DHT22;19640;50.944;5.260;2023-06-14T04:52:05;17.70;95.50
33269;DHT22;19640;50.944;5.260;2023-06-14T04:54:31;17.70;94.10
33269;DHT22;19640;50.944;5.260;2023-06-14T04:56:59;17.70;95.00
33269;DHT22;19640;50.944;5.260;2023-06-14T04:59:25;17.80;94.60
33269;DHT22;19640;50.944;5.260;2023-06-14T05:01:51;17.80;93.30
33269;DHT22;19640;50.944;5.260;2023-06-14T05:04:18;17.90;93.20
33269;DHT22;19640;50.944;5.260;2023-06-14T05:06:45;18.00;93.90
33269;DHT22;19640;50.944;5.260;2023-06-14T05:09:12;18.00;93.60
33269;DHT22;19640;50.944;5.260;2023-06-14T05:11:37;18.10;93.60
33269;DHT22;19640;50.944;5.260;2023-06-14T05:14:03;18.00;93.30
33269;DHT22;19640;50.944;5.260;2023-06-14T05:16:29;18.10;93.50
33269;DHT22;19640;50.944;5.260;2023-06-14T05:18:54;18.20;93.00
33269;DHT22;19640;50.944;5.260;2023-06-14T05:21:20;18.30;92.90
33269;DHT22;19640;50.944;5.260;2023-06-14T05:23:46;18.40;93.10
33269;DHT22;19640;50.944;5.260;2023-06-14T05:26:12;18.40;93.60
33269;DHT22;19640;50.944;5.260;2023-06-14T05:28:38;18.40;92.90
33269;DHT22;19640;50.944;5.260;2023-06-14T05:31:04;18.40;92.60
33269;DHT22;19640;50.944;5.260;2023-06-14T05:33:29;18.50;92.70
33269;DHT22;19640;50.944;5.260;2023-06-14T05:35:55;18.40;92.60
33269;DHT22;19640;50.944;5.260;2023-06-14T05:38:21;18.50;93.50
33269;DHT22;19640;50.944;5.260;2023-06-14T05:40:47;18.50;95.10
33269;DHT22;19640;50.944;5.260;2023-06-14T05:43:13;18.60;94.40
33269;DHT22;19640;50.944;5.260;2023-06-14T05:45:39;18.80;94.10
33269;DHT22;19640;50.944;5.260;2023-06-14T05:48:04;18.90;94.00
33269;DHT22;19640;50.944;5.260;2023-06-14T05:50:30;18.80;93.30
33269;DHT22;19640;50.944;5.260;2023-06-14T05:52:56;19.00;93.80
33269;DHT22;19640;50.944;5.260;2023-06-14T05:55:21;19.10;92.00
33269;DHT22;19640;50.944;5.260;2023-06-14T05:57:47;19.10;91.70
33269;DHT22;19640;50.944;5.260;2023-06-14T06:00:14;19.40;92.30
33269;DHT22;19640;50.944;5.260;2023-06-14T06:02:44;19.40;91.40
33269;DHT22;19640;50.944;5.260;2023-06-14T06:05:10;19.40;91.30
33269;DHT22;19640;50.944;5.260;2023-06-14T06:07:37;19.50;91.20
33269;DHT22;19640;50.944;5.260;2023-06-14T06:10:04;19.60;91.20
33269;DHT22;19640;50.944;5.260;2023-06-14T06:12:30;19.50;91.00
33269;DHT22;19640;50.944;5.260;2023-06-14T06:14:56;19.60;92.00
33269;DHT22;19640;50.944;5.260;2023-06-14T06:17:22;19.50;91.50
33269;DHT22;19640;50.944;5.260;2023-06-14T06:19:48;19.60;91.60
33269;DHT22;19640;50.944;5.260;2023-06-14T06:22:14;20.00;92.40
33269;DHT22;19640;50.944;5.260;2023-06-14T06:24:39;20.40;90.50
33269;DHT22;19640;50.944;5.260;2023-06-14T06:27:05;21.20;90.50
33269;DHT22;19640;50.944;5.260;2023-06-14T06:29:34;22.10;84.30
33269;DHT22;19640;50.944;5.260;2023-06-14T06:32:00;22.80;81.80
33269;DHT22;19640;50.944;5.260;2023-06-14T06:34:26;23.30;81.40
33269;DHT22;19640;50.944;5.260;2023-06-14T06:36:52;24.80;79.00
33269;DHT22;19640;50.944;5.260;2023-06-14T06:39:18;25.70;75.40
33269;DHT22;19640;50.944;5.260;2023-06-14T06:41:43;26.30;73.20
33269;DHT22;19640;50.944;5.260;2023-06-14T06:44:09;26.50;72.70
33269;DHT22;19640;50.944;5.260;2023-06-14T06:46:38;26.50;72.90
33269;DHT22;19640;50.944;5.260;2023-06-14T06:49:08;26.10;70.40
33269;DHT22;19640;50.944;5.260;2023-06-14T06:51:40;26.40;71.50
33269;DHT22;19640;50.944;5.260;2023-06-14T06:54:07;26.40;70.60
33269;DHT22;19640;50.944;5.260;2023-06-14T06:56:34;27.10;70.20
33269;DHT22;19640;50.944;5.260;2023-06-14T06:58:59;26.80;68.30
33269;DHT22;19640;50.944;5.260;2023-06-14T07:01:25;26.70;71.40
33269;DHT22;19640;50.944;5.260;2023-06-14T07:03:51;26.70;70.10
33269;DHT22;19640;50.944;5.260;2023-06-14T07:06:17;26.60;70.70
33269;DHT22;19640;50.944;5.260;2023-06-14T07:08:44;26.20;70.10
33269;DHT22;19640;50.944;5.260;2023-06-14T07:11:10;25.70;69.40
33269;DHT22;19640;50.944;5.260;2023-06-14T07:13:35;25.70;69.60
33269;DHT22;19640;50.944;5.260;2023-06-14T07:16:01;25.90;71.30
33269;DHT22;19640;50.944;5.260;2023-06-14T07:18:28;26.50;68.00
33269;DHT22;19640;50.944;5.260;2023-06-14T07:20:54;26.00;68.60
33269;DHT22;19640;50.944;5.260;2023-06-14T07:23:20;25.60;70.80
33269;DHT22;19640;50.944;5.260;2023-06-14T07:25:46;26.10;70.80
33269;DHT22;19640;50.944;5.260;2023-06-14T07:28:12;26.70;67.40
33269;DHT22;19640;50.944;5.260;2023-06-14T07:30:38;27.80;66.20
33269;DHT22;19640;50.944;5.260;2023-06-14T07:33:03;27.10;66.00
33269;DHT22;19640;50.944;5.260;2023-06-14T07:35:29;25.80;67.60
33269;DHT22;19640;50.944;5.260;2023-06-14T07:37:54;26.50;69.70
33269;DHT22;19640;50.944;5.260;2023-06-14T07:40:20;26.00;67.90
33269;DHT22;19640;50.944;5.260;2023-06-14T07:42:46;25.60;68.40
33269;DHT22;19640;50.944;5.260;2023-06-14T07:45:15;25.60;69.00
33269;DHT22;19640;50.944;5.260;2023-06-14T07:47:41;26.10;68.60
33269;DHT22;19640;50.944;5.260;2023-06-14T07:50:06;26.60;67.30
33269;DHT22;19640;50.944;5.260;2023-06-14T07:52:32;27.10;67.00
33269;DHT22;19640;50.944;5.260;2023-06-14T07:54:58;27.40;66.80
33269;DHT22;19640;50.944;5.260;2023-06-14T07:57:24;26.80;65.60
33269;DHT22;19640;50.944;5.260;2023-06-14T07:59:50;27.40;65.60
33269;DHT22;19640;50.944;5.260;2023-06-14T08:02:15;27.00;63.80
33269;DHT22;19640;50.944;5.260;2023-06-14T08:04:41;27.30;65.20
33269;DHT22;19640;50.944;5.260;2023-06-14T08:07:07;27.60;62.80
33269;DHT22;19640;50.944;5.260;2023-06-14T08:09:33;28.10;63.10
33269;DHT22;19640;50.944;5.260;2023-06-14T08:11:59;28.10;60.80
33269;DHT22;19640;50.944;5.260;2023-06-14T08:14:25;27.00;64.70
33269;DHT22;19640;50.944;5.260;2023-06-14T08:16:51;26.30;64.80
33269;DHT22;19640;50.944;5.260;2023-06-14T08:19:17;25.80;66.40
33269;DHT22;19640;50.944;5.260;2023-06-14T08:21:43;25.60;68.60
33269;DHT22;19640;50.944;5.260;2023-06-14T08:24:10;25.40;68.80
33269;DHT22;19640;50.944;5.260;2023-06-14T08:26:38;25.30;68.50
33269;DHT22;19640;50.944;5.260;2023-06-14T08:29:05;25.20;68.70
33269;DHT22;19640;50.944;5.260;2023-06-14T08:31:33;25.00;66.80
33269;DHT22;19640;50.944;5.260;2023-06-14T08:33:59;24.90;67.90
33269;DHT22;19640;50.944;5.260;2023-06-14T08:36:24;24.90;68.80
33269;DHT22;19640;50.944;5.260;2023-06-14T08:38:50;24.70;68.80
33269;DHT22;19640;50.944;5.260;2023-06-14T08:41:21;24.80;70.80
33269;DHT22;19640;50.944;5.260;2023-06-14T08:43:51;24.60;69.80
33269;DHT22;19640;50.944;5.260;2023-06-14T08:46:18;24.90;69.90
33269;DHT22;19640;50.944;5.260;2023-06-14T08:48:51;25.10;70.60
33269;DHT22;19640;50.944;5.260;2023-06-14T08:51:20;25.40;71.50
33269;DHT22;19640;50.944;5.260;2023-06-14T08:53:53;25.30;69.70
33269;DHT22;19640;50.944;5.260;2023-06-14T08:56:26;25.30;67.60
33269;DHT22;19640;50.944;5.260;2023-06-14T08:58:53;25.30;70.80
33269;DHT22;19640;50.944;5.260;2023-06-14T09:01:20;25.40;68.40
33269;DHT22;19640;50.944;5.260;2023-06-14T09:03:48;25.30;70.50
33269;DHT22;19640;50.944;5.260;2023-06-14T09:06:14;25.40;67.00
33269;DHT22;19640;50.944;5.260;2023-06-14T09:08:42;25.30;66.70
33269;DHT22;19640;50.944;5.260;2023-06-14T09:11:12;25.40;66.50
33269;DHT22;19640;50.944;5.260;2023-06-14T09:13:39;25.10;66.70
33269;DHT22;19640;50.944;5.260;2023-06-14T09:16:05;24.90;65.30
33269;DHT22;19640;50.944;5.260;2023-06-14T09:18:36;24.80;64.90
33269;DHT22;19640;50.944;5.260;2023-06-14T09:21:02;25.10;67.10
33269;DHT22;19640;50.944;5.260;2023-06-14T09:23:28;25.10;64.80
33269;DHT22;19640;50.944;5.260;2023-06-14T09:25:54;25.40;67.80
33269;DHT22;19640;50.944;5.260;2023-06-14T09:28:20;25.60;65.80
33269;DHT22;19640;50.944;5.260;2023-06-14T09:30:48;25.70;64.30
33269;DHT22;19640;50.944;5.260;2023-06-14T09:33:17;25.50;62.40
33269;DHT22;19640;50.944;5.260;2023-06-14T09:35:46;25.40;64.90
33269;DHT22;19640;50.944;5.260;2023-06-14T09:38:12;25.60;63.90
33269;DHT22;19640;50.944;5.260;2023-06-14T09:40:37;25.70;64.70
33269;DHT22;19640;50.944;5.260;2023-06-14T09:43:06;25.80;66.40
33269;DHT22;19640;50.944;5.260;2023-06-14T09:45:35;25.60;62.00
33269;DHT22;19640;50.944;5.260;2023-06-14T09:48:02;25.50;64.70
33269;DHT22;19640;50.944;5.260;2023-06-14T09:50:28;25.50;62.70
33269;DHT22;19640;50.944;5.260;2023-06-14T09:52:59;25.70;66.30
33269;DHT22;19640;50.944;5.260;2023-06-14T09:55:30;26.00;62.50
33269;DHT22;19640;50.944;5.260;2023-06-14T09:57:57;26.00;62.80
33269;DHT22;19640;50.944;5.260;2023-06-14T10:00:23;25.80;61.60
33269;DHT22;19640;50.944;5.260;2023-06-14T10:02:54;25.70;60.30
33269;DHT22;19640;50.944;5.260;2023-06-14T10:05:22;25.60;60.90
33269;DHT22;19640;50.944;5.260;2023-06-14T10:07:53;25.50;63.80
33269;DHT22;19640;50.944;5.260;2023-06-14T10:10:21;25.40;64.00
33269;DHT22;19640;50.944;5.260;2023-06-14T10:12:47;25.60;65.00
33269;DHT22;19640;50.944;5.260;2023-06-14T10:15:30;25.60;60.70
33269;DHT22;19640;50.944;5.260;2023-06-14T10:18:14;25.50;61.80
33269;DHT22;19640;50.944;5.260;2023-06-14T10:23:44;25.70;63.90
33269;DHT22;19640;50.944;5.260;2023-06-14T10:26:19;25.60;60.70
33269;DHT22;19640;50.944;5.260;2023-06-14T10:28:59;25.80;62.10
33269;DHT22;19640;50.944;5.260;2023-06-14T10:31:48;25.60;59.70
33269;DHT22;19640;50.944;5.260;2023-06-14T10:34:30;25.90;63.40
33269;DHT22;19640;50.944;5.260;2023-06-14T10:37:12;26.00;61.40
33269;DHT22;19640;50.944;5.260;2023-06-14T10:39:44;25.70;64.60
33269;DHT22;19640;50.944;5.260;2023-06-14T10:42:13;25.90;64.60
33269;DHT22;19640;50.944;5.260;2023-06-14T10:44:49;26.10;62.70
33269;DHT22;19640;50.944;5.260;2023-06-14T10:47:34;26.30;62.50
33269;DHT22;19640;50.944;5.260;2023-06-14T10:50:06;26.20;61.30
33269;DHT22;19640;50.944;5.260;2023-06-14T10:52:34;26.00;62.30
33269;DHT22;19640;50.944;5.260;2023-06-14T10:55:09;26.00;62.00
33269;DHT22;19640;50.944;5.260;2023-06-14T10:57:38;26.20;62.70
33269;DHT22;19640;50.944;5.260;2023-06-14T11:00:05;26.20;62.00
33269;DHT22;19640;50.944;5.260;2023-06-14T11:05:26;26.10;60.80
33269;DHT22;19640;50.944;5.260;2023-06-14T11:10:43;26.30;59.30
33269;DHT22;19640;50.944;5.260;2023-06-14T11:13:11;26.30;58.00
33269;DHT22;19640;50.944;5.260;2023-06-14T11:15:37;26.30;57.50
33269;DHT22;19640;50.944;5.260;2023-06-14T11:18:05;26.00;55.80
33269;DHT22;19640;50.944;5.260;2023-06-14T11:20:32;26.10;57.50
33269;DHT22;19640;50.944;5.260;2023-06-14T11:22:59;26.30;59.50
33269;DHT22;19640;50.944;5.260;2023-06-14T11:25:25;26.10;57.00
33269;DHT22;19640;50.944;5.260;2023-06-14T11:27:52;26.10;55.60
33269;DHT22;19640;50.944;5.260;2023-06-14T11:30:18;26.00;55.30
33269;DHT22;19640;50.944;5.260;2023-06-14T11:32:48;26.20;59.20
33269;DHT22;19640;50.944;5.260;2023-06-14T11:35:14;26.10;53.70
33269;DHT22;19640;50.944;5.260;2023-06-14T11:37:40;25.80;53.60
33269;DHT22;19640;50.944;5.260;2023-06-14T11:40:07;25.90;54.80
33269;DHT22;19640;50.944;5.260;2023-06-14T11:42:36;26.30;55.20
33269;DHT22;19640;50.944;5.260;2023-06-14T11:45:02;26.20;54.90
33269;DHT22;19640;50.944;5.260;2023-06-14T11:47:40;26.20;52.20
33269;DHT22;19640;50.944;5.260;2023-06-14T11:50:08;25.70;53.80
33269;DHT22;19640;50.944;5.260;2023-06-14T11:52:35;25.80;56.70
33269;DHT22;19640;50.944;5.260;2023-06-14T11:55:02;26.30;55.80
33269;DHT22;19640;50.944;5.260;2023-06-14T11:57:33;26.30;54.80
33269;DHT22;19640;50.944;5.260;2023-06-14T11:59:59;26.30;53.30
33269;DHT22;19640;50.944;5.260;2023-06-14T12:02:25;26.60;57.40
33269;DHT22;19640;50.944;5.260;2023-06-14T12:04:53;26.80;54.90
33269;DHT22;19640;50.944;5.260;2023-06-14T12:07:22;26.20;55.30
33269;DHT22;19640;50.944;5.260;2023-06-14T12:12:21;26.00;54.30
33269;DHT22;19640;50.944;5.260;2023-06-14T12:14:47;26.00;55.50
33269;DHT22;19640;50.944;5.260;2023-06-14T12:17:13;25.90;57.60
33269;DHT22;19640;50.944;5.260;2023-06-14T12:19:43;26.00;56.50
33269;DHT22;19640;50.944;5.260;2023-06-14T12:22:10;26.40;57.70
33269;DHT22;19640;50.944;5.260;2023-06-14T12:24:36;26.50;56.00
33269;DHT22;19640;50.944;5.260;2023-06-14T12:27:02;26.40;53.80
33269;DHT22;19640;50.944;5.260;2023-06-14T12:29:29;26.30;55.00
33269;DHT22;19640;50.944;5.260;2023-06-14T12:31:55;25.90;55.60
33269;DHT22;19640;50.944;5.260;2023-06-14T12:34:26;26.00;58.00
33269;DHT22;19640;50.944;5.260;2023-06-14T12:36:53;26.20;55.50
33269;DHT22;19640;50.944;5.260;2023-06-14T12:39:19;26.00;54.70
33269;DHT22;19640;50.944;5.260;2023-06-14T12:41:45;25.80;53.10
33269;DHT22;19640;50.944;5.260;2023-06-14T12:44:11;25.60;54.60
33269;DHT22;19640;50.944;5.260;2023-06-14T12:46:37;25.60;56.60
33269;DHT22;19640;50.944;5.260;2023-06-14T12:49:05;26.00;58.50
33269;DHT22;19640;50.944;5.260;2023-06-14T12:51:32;26.20;57.70
33269;DHT22;19640;50.944;5.260;2023-06-14T12:53:58;26.00;55.60
33269;DHT22;19640;50.944;5.260;2023-06-14T12:56:23;25.70;56.40
33269;DHT22;19640;50.944;5.260;2023-06-14T12:58:49;25.80;59.20
33269;DHT22;19640;50.944;5.260;2023-06-14T13:01:15;26.00;56.60
33269;DHT22;19640;50.944;5.260;2023-06-14T13:03:40;26.10;57.60
33269;DHT22;19640;50.944;5.260;2023-06-14T13:06:06;26.10;56.30
33269;DHT22;19640;50.944;5.260;2023-06-14T13:08:32;25.90;57.40
33269;DHT22;19640;50.944;5.260;2023-06-14T13:10:57;25.90;56.50
33269;DHT22;19640;50.944;5.260;2023-06-14T13:13:23;25.80;58.40
33269;DHT22;19640;50.944;5.260;2023-06-14T13:15:50;25.90;55.50
33269;DHT22;19640;50.944;5.260;2023-06-14T13:18:16;25.80;56.70
33269;DHT22;19640;50.944;5.260;2023-06-14T13:20:42;25.70;57.30
33269;DHT22;19640;50.944;5.260;2023-06-14T13:23:08;26.00;57.90
33269;DHT22;19640;50.944;5.260;2023-06-14T13:25:38;25.80;56.30
33269;DHT22;19640;50.944;5.260;2023-06-14T13:28:04;25.90;57.00
33269;DHT22;19640;50.944;5.260;2023-06-14T13:30:31;25.90;56.10
33269;DHT22;19640;50.944;5.260;2023-06-14T13:32:57;26.00;58.00
33269;DHT22;19640;50.944;5.260;2023-06-14T13:35:23;25.60;56.40
33269;DHT22;19640;50.944;5.260;2023-06-14T13:37:49;25.80;56.50
33269;DHT22;19640;50.944;5.260;2023-06-14T13:40:15;26.10;55.30
33269;DHT22;19640;50.944;5.260;2023-06-14T13:42:41;26.20;60.20
33269;DHT22;19640;50.944;5.260;2023-06-14T13:45:07;26.30;58.40
33269;DHT22;19640;50.944;5.260;2023-06-14T13:47:33;26.20;58.00
33269;DHT22;19640;50.944;5.260;2023-06-14T13:49:59;25.90;56.50
33269;DHT22;19640;50.944;5.260;2023-06-14T13:52:25;25.90;57.90
33269;DHT22;19640;50.944;5.260;2023-06-14T13:54:51;25.90;58.10
33269;DHT22;19640;50.944;5.260;2023-06-14T13:57:17;26.00;56.70
33269;DHT22;19640;50.944;5.260;2023-06-14T13:59:43;26.00;56.90
33269;DHT22;19640;50.944;5.260;2023-06-14T14:02:10;25.90;56.90
33269;DHT22;19640;50.944;5.260;2023-06-14T14:04:37;25.80;58.70
33269;DHT22;19640;50.944;5.260;2023-06-14T14:07:04;25.80;57.80
33269;DHT22;19640;50.944;5.260;2023-06-14T14:09:30;25.70;57.00
33269;DHT22;19640;50.944;5.260;2023-06-14T14:11:56;25.70;56.70
33269;DHT22;19640;50.944;5.260;2023-06-14T14:14:22;25.70;56.40
33269;DHT22;19640;50.944;5.260;2023-06-14T14:16:49;25.60;56.70
33269;DHT22;19640;50.944;5.260;2023-06-14T14:19:17;25.40;56.00
33269;DHT22;19640;50.944;5.260;2023-06-14T14:21:45;25.50;56.20
33269;DHT22;19640;50.944;5.260;2023-06-14T14:24:11;25.40;56.00
33269;DHT22;19640;50.944;5.260;2023-06-14T14:26:36;25.80;58.10
33269;DHT22;19640;50.944;5.260;2023-06-14T14:29:02;25.80;55.20
33269;DHT22;19640;50.944;5.260;2023-06-14T14:31:28;25.80;55.80
33269;DHT22;19640;50.944;5.260;2023-06-14T14:33:54;25.70;57.40
33269;DHT22;19640;50.944;5.260;2023-06-14T14:36:19;25.90;56.50
33269;DHT22;19640;50.944;5.260;2023-06-14T14:38:45;25.70;56.90
33269;DHT22;19640;50.944;5.260;2023-06-14T14:41:13;25.80;54.20
33269;DHT22;19640;50.944;5.260;2023-06-14T14:43:38;25.60;55.80
33269;DHT22;19640;50.944;5.260;2023-06-14T14:46:04;26.00;58.10
33269;DHT22;19640;50.944;5.260;2023-06-14T14:48:30;25.80;56.30
33269;DHT22;19640;50.944;5.260;2023-06-14T14:50:56;25.70;57.10
33269;DHT22;19640;50.944;5.260;2023-06-14T14:53:21;25.90;57.90
33269;DHT22;19640;50.944;5.260;2023-06-14T14:55:47;26.00;56.00
33269;DHT22;19640;50.944;5.260;2023-06-14T14:58:13;26.00;55.30
33269;DHT22;19640;50.944;5.260;2023-06-14T15:00:46;26.00;57.60
33269;DHT22;19640;50.944;5.260;2023-06-14T15:03:12;26.00;57.00
33269;DHT22;19640;50.944;5.260;2023-06-14T15:05:38;26.00;58.50
33269;DHT22;19640;50.944;5.260;2023-06-14T15:08:04;26.10;58.60
33269;DHT22;19640;50.944;5.260;2023-06-14T15:10:35;26.30;59.80
33269;DHT22;19640;50.944;5.260;2023-06-14T15:13:01;26.20;58.20
33269;DHT22;19640;50.944;5.260;2023-06-14T15:15:27;25.90;56.60
33269;DHT22;19640;50.944;5.260;2023-06-14T15:17:52;25.80;56.60
33269;DHT22;19640;50.944;5.260;2023-06-14T15:20:18;25.70;56.20
33269;DHT22;19640;50.944;5.260;2023-06-14T15:22:44;25.50;57.40
33269;DHT22;19640;50.944;5.260;2023-06-14T15:25:10;25.60;56.90
33269;DHT22;19640;50.944;5.260;2023-06-14T15:27:35;25.70;57.40
33269;DHT22;19640;50.944;5.260;2023-06-14T15:30:01;25.70;56.60
33269;DHT22;19640;50.944;5.260;2023-06-14T15:32:27;25.60;56.60
33269;DHT22;19640;50.944;5.260;2023-06-14T15:34:53;25.70;59.00
33269;DHT22;19640;50.944;5.260;2023-06-14T15:37:19;25.80;57.80
33269;DHT22;19640;50.944;5.260;2023-06-14T15:39:44;26.00;59.10
33269;DHT22;19640;50.944;5.260;2023-06-14T15:42:10;25.90;56.10
33269;DHT22;19640;50.944;5.260;2023-06-14T15:44:37;25.70;57.80
33269;DHT22;19640;50.944;5.260;2023-06-14T15:47:02;25.80;55.80